Time;durP1;ratioP1;P1;durP2;ratioP2;P2;SDS_P1;SDS_P2;PMS_P1;PMS_P2;Temp;Humidity;BMP_temperature;BMP_pressure;BME280_temperature;BME280_humidity;BME280_pressure;Samples;Min_cycle;Max_cycle;Signal;HPM_P1;HPM_P2
2023/08/11 00:01:33;;;;;;;5.38;2.97;;;;;;;;;;4993108;28;20042;-92
2023/08/11 00:03:59;;;;;;;4.10;2.60;;;;;;;;;;4981262;28;20037;-92
2023/08/11 00:06:28;;;;;;;12.95;3.50;;;;;;;;;;4984516;28;20482;-93
2023/08/11 00:08:54;;;;;;;4.68;3.00;;;;;;;;;;4994177;28;20057;-92
2023/08/11 00:11:20;;;;;;;4.32;2.60;;;;;;;;;;4976879;28;20069;-92
2023/08/11 00:13:46;;;;;;;5.20;2.90;;;;;;;;;;4981028;28;20026;-92
2023/08/11 00:16:12;;;;;;;12.07;3.05;;;;;;;;;;4980227;28;20041;-92
2023/08/11 00:18:39;;;;;;;5.55;2.85;;;;;;;;;;4993666;28;20022;-92
2023/08/11 00:21:07;;;;;;;7.88;3.30;;;;;;;;;;4993093;28;20386;-93
2023/08/11 00:23:35;;;;;;;5.60;3.10;;;;;;;;;;4995011;28;20037;-93
2023/08/11 00:26:02;;;;;;;5.22;3.42;;;;;;;;;;5006778;28;20470;-93
2023/08/11 00:28:29;;;;;;;5.47;3.28;;;;;;;;;;4996285;28;20597;-93
2023/08/11 00:30:59;;;;;;;6.03;3.33;;;;;;;;;;4981051;28;20034;-94
2023/08/11 00:33:25;;;;;;;3.72;2.97;;;;;;;;;;5012171;28;20050;-93
2023/08/11 00:35:51;;;;;;;4.80;3.17;;;;;;;;;;4997244;28;20033;-94
2023/08/11 00:38:18;;;;;;;9.35;3.30;;;;;;;;;;5001551;28;20097;-94
2023/08/11 00:40:44;;;;;;;11.95;3.00;;;;;;;;;;4994796;28;20106;-94
2023/08/11 00:43:11;;;;;;;10.23;3.47;;;;;;;;;;4998797;28;20046;-94
2023/08/11 00:45:37;;;;;;;6.53;3.83;;;;;;;;;;4997383;28;20433;-94
2023/08/11 00:48:03;;;;;;;6.95;3.75;;;;;;;;;;4981418;28;20026;-95
2023/08/11 00:50:30;;;;;;;9.60;3.53;;;;;;;;;;4997688;28;20030;-94
2023/08/11 00:53:01;;;;;;;5.57;4.10;;;;;;;;;;5013335;28;20041;-94
2023/08/11 00:55:27;;;;;;;8.63;4.05;;;;;;;;;;5008562;28;20030;-93
2023/08/11 00:57:53;;;;;;;6.90;3.92;;;;;;;;;;5016075;28;20106;-93
2023/08/11 01:00:19;;;;;;;7.75;3.95;;;;;;;;;;4999412;28;20041;-94
2023/08/11 01:02:46;;;;;;;11.65;3.97;;;;;;;;;;4994627;28;20044;-93
2023/08/11 01:05:16;;;;;;;7.95;5.47;;;;;;;;;;5013683;28;20565;-93
2023/08/11 01:07:51;;;;;;;10.68;4.10;;;;;;;;;;5013771;28;20022;-93
2023/08/11 01:10:27;;;;;;;6.30;4.00;;;;;;;;;;5014921;28;20024;-92
2023/08/11 01:13:00;;;;;;;8.93;4.10;;;;;;;;;;5016287;28;20044;-94
2023/08/11 01:15:32;;;;;;;6.65;4.47;;;;;;;;;;5013052;28;20040;-94
2023/08/11 01:17:59;;;;;;;6.90;4.97;;;;;;;;;;5015358;28;20026;-94
2023/08/11 01:20:26;;;;;;;8.93;4.47;;;;;;;;;;5000322;28;20030;-94
2023/08/11 01:22:54;;;;;;;7.43;4.82;;;;;;;;;;4994931;28;20030;-94
2023/08/11 01:25:21;;;;;;;7.03;4.85;;;;;;;;;;4998455;28;20080;-93
2023/08/11 01:27:58;;;;;;;9.88;4.45;;;;;;;;;;4996758;28;20197;-94
2023/08/11 01:30:29;;;;;;;7.97;4.95;;;;;;;;;;5021038;28;20034;-94
2023/08/11 01:32:56;;;;;;;11.95;5.10;;;;;;;;;;5020417;28;20054;-95
2023/08/11 01:35:22;;;;;;;7.93;4.70;;;;;;;;;;5000378;28;20030;-94
2023/08/11 01:37:50;;;;;;;9.05;5.40;;;;;;;;;;4999041;28;20057;-93
2023/08/11 01:40:16;;;;;;;10.20;5.25;;;;;;;;;;4993140;28;20034;-93
2023/08/11 01:42:43;;;;;;;8.38;5.10;;;;;;;;;;5028070;28;20041;-91
2023/08/11 01:45:15;;;;;;;10.35;5.57;;;;;;;;;;5013090;28;20117;-93
2023/08/11 01:47:46;;;;;;;9.75;5.20;;;;;;;;;;5004547;28;20026;-94
2023/08/11 01:50:14;;;;;;;8.65;5.68;;;;;;;;;;4980431;28;20093;-93
2023/08/11 01:52:43;;;;;;;10.95;5.57;;;;;;;;;;5012459;28;20319;-93
2023/08/11 01:55:10;;;;;;;7.95;5.68;;;;;;;;;;5018164;28;20073;-93
2023/08/11 01:57:40;;;;;;;11.07;6.50;;;;;;;;;;4991811;28;20068;-93
2023/08/11 02:00:12;;;;;;;11.98;6.57;;;;;;;;;;4997564;28;20096;-93
2023/08/11 02:02:39;;;;;;;8.35;5.47;;;;;;;;;;4983311;28;22305;-94
2023/08/11 02:05:06;;;;;;;8.75;6.10;;;;;;;;;;4997163;28;20140;-94
2023/08/11 02:07:32;;;;;;;12.07;6.47;;;;;;;;;;5017383;28;20040;-94
2023/08/11 02:09:58;;;;;;;12.02;6.55;;;;;;;;;;4988040;28;20057;-93
2023/08/11 02:12:24;;;;;;;9.23;6.53;;;;;;;;;;4994514;28;20034;-92
2023/08/11 02:14:51;;;;;;;10.27;6.15;;;;;;;;;;4995169;28;20062;-92
2023/08/11 02:17:17;;;;;;;11.65;6.00;;;;;;;;;;5007133;28;20084;-93
2023/08/11 02:19:43;;;;;;;8.93;5.97;;;;;;;;;;4999176;28;20034;-93
2023/08/11 02:22:09;;;;;;;10.52;5.55;;;;;;;;;;4995103;28;20042;-93
2023/08/11 02:24:35;;;;;;;10.45;6.28;;;;;;;;;;4980852;28;20034;-93
2023/08/11 02:27:04;;;;;;;18.90;7.53;;;;;;;;;;4983556;28;20630;-93
2023/08/11 02:29:30;;;;;;;14.20;7.85;;;;;;;;;;4979968;28;20025;-93
2023/08/11 02:31:56;;;;;;;14.63;8.10;;;;;;;;;;4978436;28;20046;-93
2023/08/11 02:34:22;;;;;;;13.40;8.00;;;;;;;;;;4995317;28;20132;-93
2023/08/11 02:36:48;;;;;;;16.73;9.00;;;;;;;;;;4995127;28;20120;-93
2023/08/11 02:39:14;;;;;;;14.15;8.20;;;;;;;;;;5014153;28;20041;-94
2023/08/11 02:41:42;;;;;;;14.60;9.02;;;;;;;;;;4989111;28;20037;-93
2023/08/11 02:44:08;;;;;;;12.73;7.72;;;;;;;;;;5026650;28;20025;-93
2023/08/11 02:46:35;;;;;;;17.85;9.43;;;;;;;;;;5005460;28;20120;-92
2023/08/11 02:49:01;;;;;;;19.02;8.40;;;;;;;;;;4995621;28;20466;-92
2023/08/11 02:51:30;;;;;;;15.85;9.52;;;;;;;;;;4988009;28;20038;-92
2023/08/11 02:53:56;;;;;;;16.40;9.93;;;;;;;;;;4996102;28;20320;-93
2023/08/11 02:56:22;;;;;;;21.52;10.90;;;;;;;;;;5010436;28;20021;-93
2023/08/11 02:58:49;;;;;;;18.23;11.13;;;;;;;;;;5013618;28;20056;-92
2023/08/11 03:01:15;;;;;;;22.38;10.45;;;;;;;;;;5011280;28;20052;-93
2023/08/11 03:03:42;;;;;;;18.52;11.20;;;;;;;;;;5014997;28;20036;-92
2023/08/11 03:06:11;;;;;;;21.67;12.13;;;;;;;;;;4995490;28;20386;-90
2023/08/11 03:08:38;;;;;;;17.60;10.93;;;;;;;;;;4996913;28;20033;-90
2023/08/11 03:11:04;;;;;;;25.45;13.82;;;;;;;;;;5009941;28;20025;-91
2023/08/11 03:13:30;;;;;;;26.50;13.27;;;;;;;;;;4995359;28;20040;-91
2023/08/11 03:15:58;;;;;;;30.55;12.90;;;;;;;;;;5001113;28;20033;-92
2023/08/11 03:18:28;;;;;;;25.27;12.95;;;;;;;;;;5013918;28;20037;-91
2023/08/11 03:20:54;;;;;;;20.55;12.70;;;;;;;;;;5009217;28;20477;-91
2023/08/11 03:23:20;;;;;;;24.05;13.25;;;;;;;;;;5013852;28;20053;-91
2023/08/11 03:25:46;;;;;;;26.70;13.65;;;;;;;;;;4996413;28;20033;-91
2023/08/11 03:28:14;;;;;;;24.38;13.65;;;;;;;;;;4995476;28;20034;-91
2023/08/11 03:30:40;;;;;;;18.83;12.43;;;;;;;;;;5010863;28;20026;-91
2023/08/11 03:33:13;;;;;;;25.25;13.23;;;;;;;;;;4993950;28;20060;-91
2023/08/11 03:35:41;;;;;;;25.52;13.52;;;;;;;;;;5008446;28;20537;-91
2023/08/11 03:38:07;;;;;;;19.73;13.65;;;;;;;;;;4991365;28;20038;-90
2023/08/11 03:40:33;;;;;;;22.73;13.70;;;;;;;;;;4992394;28;20045;-90
2023/08/11 03:42:59;;;;;;;23.05;13.85;;;;;;;;;;4990114;28;20073;-90
2023/08/11 03:45:25;;;;;;;28.20;14.77;;;;;;;;;;4989012;28;20060;-91
2023/08/11 03:47:51;;;;;;;23.98;14.52;;;;;;;;;;5006466;28;20030;-90
2023/08/11 03:50:17;;;;;;;27.05;13.50;;;;;;;;;;5006437;28;20133;-92
2023/08/11 03:52:45;;;;;;;25.50;14.02;;;;;;;;;;4995687;28;20042;-92
2023/08/11 03:55:12;;;;;;;23.55;13.48;;;;;;;;;;5010849;28;20034;-91
2023/08/11 03:57:38;;;;;;;27.30;13.98;;;;;;;;;;4988425;28;20664;-92
2023/08/11 04:00:11;;;;;;;26.17;13.13;;;;;;;;;;4988120;28;20034;-92
2023/08/11 04:02:37;;;;;;;25.05;13.68;;;;;;;;;;4998563;28;20049;-93
2023/08/11 04:05:03;;;;;;;24.73;14.13;;;;;;;;;;5004270;28;20038;-91
2023/08/11 04:07:30;;;;;;;19.92;13.25;;;;;;;;;;4994280;28;20030;-91
2023/08/11 04:09:58;;;;;;;22.65;13.35;;;;;;;;;;5022372;28;20068;-92
2023/08/11 04:12:24;;;;;;;23.27;13.82;;;;;;;;;;5010580;28;20033;-91
2023/08/11 04:14:50;;;;;;;24.45;12.82;;;;;;;;;;4991335;28;20504;-93
2023/08/11 04:17:16;;;;;;;24.77;12.43;;;;;;;;;;4994752;28;20045;-93
2023/08/11 04:19:43;;;;;;;23.10;12.10;;;;;;;;;;4995235;28;20053;-93
2023/08/11 04:22:09;;;;;;;26.55;12.65;;;;;;;;;;5006781;28;20126;-93
2023/08/11 04:24:36;;;;;;;22.20;12.60;;;;;;;;;;5010558;28;20037;-93
2023/08/11 04:27:02;;;;;;;24.08;11.93;;;;;;;;;;5022705;28;20176;-93
2023/08/11 04:29:44;;;;;;;23.83;13.55;;;;;;;;;;4991733;28;20026;-93
2023/08/11 04:32:22;;;;;;;19.98;12.18;;;;;;;;;;5012526;28;20274;-93
2023/08/11 04:34:51;;;;;;;20.08;10.65;;;;;;;;;;5027715;28;20038;-93
2023/08/11 04:37:18;;;;;;;22.55;12.23;;;;;;;;;;5012692;28;20481;-92
2023/08/11 04:39:44;;;;;;;25.17;11.50;;;;;;;;;;5013549;28;20029;-91
2023/08/11 04:42:12;;;;;;;16.08;10.57;;;;;;;;;;4992272;28;20100;-91
2023/08/11 04:44:39;;;;;;;17.42;10.85;;;;;;;;;;5010748;28;20306;-91
2023/08/11 04:47:05;;;;;;;15.35;10.25;;;;;;;;;;5013461;28;20473;-91
2023/08/11 04:49:32;;;;;;;18.52;10.13;;;;;;;;;;5027642;28;20029;-94
2023/08/11 04:51:59;;;;;;;21.77;10.20;;;;;;;;;;5015399;28;20037;-91
2023/08/11 04:54:25;;;;;;;15.82;9.75;;;;;;;;;;5017046;28;20139;-91
2023/08/11 04:56:51;;;;;;;18.70;8.82;;;;;;;;;;5015908;28;20038;-92
2023/08/11 04:59:21;;;;;;;13.40;8.70;;;;;;;;;;4996215;28;20045;-93
2023/08/11 05:01:48;;;;;;;13.10;8.15;;;;;;;;;;4994211;28;20047;-93
2023/08/11 05:04:15;;;;;;;14.23;8.32;;;;;;;;;;4996807;28;20033;-93
2023/08/11 05:06:41;;;;;;;17.02;8.00;;;;;;;;;;4990556;28;20144;-92
2023/08/11 05:09:07;;;;;;;18.30;9.10;;;;;;;;;;4989623;28;20034;-93
2023/08/11 05:11:33;;;;;;;15.18;8.25;;;;;;;;;;5011999;28;20033;-92
2023/08/11 05:14:00;;;;;;;14.73;7.78;;;;;;;;;;4998067;28;20124;-92
2023/08/11 05:16:26;;;;;;;16.70;8.48;;;;;;;;;;4994009;28;20057;-91
2023/08/11 05:18:52;;;;;;;14.07;8.35;;;;;;;;;;4991183;28;20046;-91
2023/08/11 05:21:21;;;;;;;12.15;8.65;;;;;;;;;;5009644;28;20474;-91
2023/08/11 05:23:47;;;;;;;14.65;8.10;;;;;;;;;;5014631;28;20029;-91
2023/08/11 05:26:13;;;;;;;14.38;8.70;;;;;;;;;;4996970;28;20033;-92
2023/08/11 05:28:39;;;;;;;12.70;7.22;;;;;;;;;;5010140;28;20040;-93
2023/08/11 05:31:05;;;;;;;12.82;7.32;;;;;;;;;;4996356;28;20476;-94
2023/08/11 05:33:33;;;;;;;12.38;7.80;;;;;;;;;;4979723;28;20058;-92
2023/08/11 05:35:59;;;;;;;13.65;7.78;;;;;;;;;;4987310;28;20109;-92
2023/08/11 05:38:25;;;;;;;13.98;7.88;;;;;;;;;;4985401;28;20121;-93
2023/08/11 05:40:52;;;;;;;17.42;7.53;;;;;;;;;;4990666;28;20041;-93
2023/08/11 05:43:21;;;;;;;15.57;7.03;;;;;;;;;;5007385;28;20043;-93
2023/08/11 05:45:48;;;;;;;12.57;7.38;;;;;;;;;;4986977;28;20047;-93
2023/08/11 05:48:15;;;;;;;17.35;7.68;;;;;;;;;;4980909;28;20792;-92
2023/08/11 05:50:44;;;;;;;10.60;6.70;;;;;;;;;;4974292;28;20119;-92
2023/08/11 05:53:14;;;;;;;15.88;6.97;;;;;;;;;;5011518;28;20030;-93
2023/08/11 05:55:40;;;;;;;15.23;7.80;;;;;;;;;;4978530;28;20061;-93
2023/08/11 05:58:06;;;;;;;15.38;6.85;;;;;;;;;;4979578;28;20034;-92
2023/08/11 06:00:35;;;;;;;15.18;6.78;;;;;;;;;;5009330;28;20034;-92
2023/08/11 06:03:01;;;;;;;14.27;7.05;;;;;;;;;;4982233;28;20029;-91
2023/08/11 06:05:27;;;;;;;12.55;7.18;;;;;;;;;;5014004;28;20034;-93
2023/08/11 06:07:53;;;;;;;13.75;6.78;;;;;;;;;;4979696;28;20040;-92
2023/08/11 06:10:23;;;;;;;13.63;6.22;;;;;;;;;;5016493;28;20087;-92
2023/08/11 06:12:49;;;;;;;10.48;6.75;;;;;;;;;;4980995;28;20030;-93
2023/08/11 06:15:15;;;;;;;10.90;6.00;;;;;;;;;;5000758;28;20064;-92
2023/08/11 06:17:49;;;;;;;14.52;5.43;;;;;;;;;;4988240;28;20109;-93
2023/08/11 06:20:15;;;;;;;14.55;5.75;;;;;;;;;;5015684;28;20034;-92
2023/08/11 06:22:50;;;;;;;8.45;5.57;;;;;;;;;;5004705;28;20039;-93
2023/08/11 06:25:16;;;;;;;14.07;5.57;;;;;;;;;;5005048;28;20089;-93
2023/08/11 06:27:43;;;;;;;9.35;4.85;;;;;;;;;;5017789;28;20050;-94
2023/08/11 06:30:10;;;;;;;9.02;5.10;;;;;;;;;;5015705;28;20040;-94
2023/08/11 06:32:52;;;;;;;9.65;5.05;;;;;;;;;;5033920;28;20038;-93
2023/08/11 06:35:18;;;;;;;8.10;4.57;;;;;;;;;;5007881;28;20045;-96
2023/08/11 06:37:44;;;;;;;7.63;4.18;;;;;;;;;;5006771;28;20029;-95
2023/08/11 06:40:11;;;;;;;9.32;4.70;;;;;;;;;;5004436;28;20034;-93
2023/08/11 06:42:38;;;;;;;7.70;4.75;;;;;;;;;;5003980;28;20401;-95
2023/08/11 06:45:05;;;;;;;6.75;4.82;;;;;;;;;;5020483;28;20033;-94
2023/08/11 06:47:35;;;;;;;9.38;5.18;;;;;;;;;;5004295;28;20033;-92
2023/08/11 06:50:02;;;;;;;11.77;4.97;;;;;;;;;;5032009;28;20037;-95
2023/08/11 06:52:29;;;;;;;12.57;5.38;;;;;;;;;;5003567;28;20033;-94
2023/08/11 06:54:55;;;;;;;8.80;5.20;;;;;;;;;;5002728;28;20064;-93
2023/08/11 06:57:25;;;;;;;7.82;4.90;;;;;;;;;;5030091;28;20070;-95
2023/08/11 06:59:51;;;;;;;9.23;4.97;;;;;;;;;;5015340;28;20030;-95
2023/08/11 07:02:18;;;;;;;8.13;5.30;;;;;;;;;;5016639;28;20029;-95
2023/08/11 07:04:44;;;;;;;10.35;4.72;;;;;;;;;;4997544;28;20037;-94
2023/08/11 07:07:10;;;;;;;9.02;4.63;;;;;;;;;;4999565;28;20036;-94
2023/08/11 07:09:37;;;;;;;8.52;4.72;;;;;;;;;;5001170;28;20485;-94
2023/08/11 07:12:03;;;;;;;8.07;4.63;;;;;;;;;;5019598;28;20021;-95
2023/08/11 07:14:30;;;;;;;8.02;4.25;;;;;;;;;;5016605;28;20042;-94
2023/08/11 07:16:57;;;;;;;8.82;4.18;;;;;;;;;;5038268;28;20652;-96
2023/08/11 07:19:26;;;;;;;10.45;4.45;;;;;;;;;;5017380;28;20033;-94
2023/08/11 07:22:01;;;;;;;7.30;3.83;;;;;;;;;;5018770;28;20035;-96
2023/08/11 07:24:27;;;;;;;5.82;3.78;;;;;;;;;;5014967;28;20026;-95
2023/08/11 07:26:56;;;;;;;7.10;4.15;;;;;;;;;;5001547;28;20655;-95
2023/08/11 07:29:22;;;;;;;7.35;4.18;;;;;;;;;;4998105;28;20025;-94
2023/08/11 07:31:49;;;;;;;6.50;4.18;;;;;;;;;;4998834;28;20042;-96
2023/08/11 07:34:15;;;;;;;7.47;3.80;;;;;;;;;;5013945;28;20042;-94
2023/08/11 07:36:44;;;;;;;7.05;3.47;;;;;;;;;;5015376;28;20029;-96
2023/08/11 07:39:12;;;;;;;7.38;3.72;;;;;;;;;;5001167;28;20033;-94
2023/08/11 07:41:38;;;;;;;5.57;3.70;;;;;;;;;;5020405;28;20036;-94
2023/08/11 07:44:15;;;;;;;8.68;3.65;;;;;;;;;;5015629;28;20111;-93
2023/08/11 07:46:42;;;;;;;11.02;4.32;;;;;;;;;;5030380;28;20409;-92
2023/08/11 07:49:09;;;;;;;8.32;4.20;;;;;;;;;;5017246;28;20044;-92
2023/08/11 07:51:35;;;;;;;8.95;4.18;;;;;;;;;;5003330;28;20032;-91
2023/08/11 07:54:07;;;;;;;10.15;3.95;;;;;;;;;;5001197;28;20409;-92
2023/08/11 07:56:33;;;;;;;5.78;3.67;;;;;;;;;;5005001;28;20033;-91
2023/08/11 07:58:59;;;;;;;5.90;4.00;;;;;;;;;;5000005;28;20477;-93
2023/08/11 08:01:26;;;;;;;9.68;4.45;;;;;;;;;;5021675;28;20033;-94
2023/08/11 08:03:56;;;;;;;9.57;4.45;;;;;;;;;;5004767;28;20382;-91
2023/08/11 08:06:22;;;;;;;5.38;3.50;;;;;;;;;;5018491;28;20569;-91
2023/08/11 08:09:18;;;;;;;6.68;3.83;;;;;;;;;;5002222;28;20039;-93
2023/08/11 08:11:50;;;;;;;10.55;3.85;;;;;;;;;;5005645;28;20042;-93
2023/08/11 08:14:17;;;;;;;6.35;4.68;;;;;;;;;;5011402;28;20033;-94
2023/08/11 08:16:46;;;;;;;6.45;4.07;;;;;;;;;;4997684;28;20886;-93
2023/08/11 08:19:14;;;;;;;6.60;4.72;;;;;;;;;;5013348;28;20033;-94
2023/08/11 08:21:41;;;;;;;6.45;3.97;;;;;;;;;;5012527;28;20025;-93
2023/08/11 08:24:07;;;;;;;8.48;3.88;;;;;;;;;;5012819;28;20325;-94
2023/08/11 08:26:37;;;;;;;5.38;2.78;;;;;;;;;;5016467;28;20082;-94
2023/08/11 08:29:06;;;;;;;6.38;4.13;;;;;;;;;;5014028;28;20037;-94
2023/08/11 08:31:33;;;;;;;13.20;4.28;;;;;;;;;;4997350;28;20046;-92
2023/08/11 08:34:02;;;;;;;5.72;3.58;;;;;;;;;;5004940;28;20199;-93
2023/08/11 08:36:28;;;;;;;9.02;3.72;;;;;;;;;;5006859;28;20833;-89
2023/08/11 08:38:54;;;;;;;9.95;3.50;;;;;;;;;;4994002;28;20108;-90
2023/08/11 08:41:28;;;;;;;5.07;3.35;;;;;;;;;;4991462;28;20034;-92
2023/08/11 08:43:58;;;;;;;10.95;3.80;;;;;;;;;;4998590;28;20057;-91
2023/08/11 08:46:44;;;;;;;7.95;3.90;;;;;;;;;;4989369;28;20125;-90
2023/08/11 08:49:25;;;;;;;5.90;3.83;;;;;;;;;;4972977;28;20161;-91
2023/08/11 08:51:58;;;;;;;8.05;3.42;;;;;;;;;;5006479;28;20030;-92
2023/08/11 08:57:12;;;;;;;5.80;3.30;;;;;;;;;;4988905;28;20393;-96
2023/08/11 08:59:59;;;;;;;6.05;3.78;;;;;;;;;;4993306;28;20030;-94
2023/08/11 09:02:38;;;;;;;7.43;3.72;;;;;;;;;;5009656;28;20046;-95
2023/08/11 09:05:22;;;;;;;4.82;3.97;;;;;;;;;;5008751;28;20113;-95
2023/08/11 09:07:49;;;;;;;6.65;3.97;;;;;;;;;;5020969;28;20035;-94
2023/08/11 09:10:17;;;;;;;5.13;3.50;;;;;;;;;;4988393;28;20026;-95
2023/08/11 09:12:44;;;;;;;7.47;4.28;;;;;;;;;;5007336;28;20205;-96
2023/08/11 09:15:12;;;;;;;6.22;3.80;;;;;;;;;;4991792;28;20050;-95
2023/08/11 09:17:39;;;;;;;6.00;3.55;;;;;;;;;;4999411;28;20206;-96
2023/08/11 09:20:09;;;;;;;7.03;3.60;;;;;;;;;;5000049;28;20039;-95
2023/08/11 09:22:42;;;;;;;6.55;4.10;;;;;;;;;;5018500;28;20091;-95
2023/08/11 09:25:08;;;;;;;8.43;3.88;;;;;;;;;;5010934;28;20060;-96
2023/08/11 09:27:34;;;;;;;8.68;4.00;;;;;;;;;;5016382;28;20164;-96
2023/08/11 09:30:00;;;;;;;6.10;3.65;;;;;;;;;;5015930;28;20030;-96
2023/08/11 09:32:33;;;;;;;7.13;3.63;;;;;;;;;;4992891;28;20057;-95
2023/08/11 09:35:19;;;;;;;5.00;3.10;;;;;;;;;;5003959;28;20057;-94
2023/08/11 09:37:45;;;;;;;11.90;3.78;;;;;;;;;;4996739;28;20041;-96
2023/08/11 09:40:12;;;;;;;7.50;3.75;;;;;;;;;;5010310;28;20056;-95
2023/08/11 09:42:41;;;;;;;7.25;3.40;;;;;;;;;;5013644;28;20037;-94
2023/08/11 09:45:25;;;;;;;6.43;3.30;;;;;;;;;;5017504;28;20045;-95
2023/08/11 09:48:11;;;;;;;9.85;4.00;;;;;;;;;;5017750;28;20041;-94
2023/08/11 09:50:39;;;;;;;6.28;3.58;;;;;;;;;;5009690;28;20046;-95
2023/08/11 09:53:07;;;;;;;7.03;3.40;;;;;;;;;;5012776;28;20341;-96
2023/08/11 09:55:36;;;;;;;5.03;3.40;;;;;;;;;;5012972;28;20049;-94
2023/08/11 09:58:03;;;;;;;6.93;3.50;;;;;;;;;;5009377;28;20033;-94
2023/08/11 10:00:30;;;;;;;8.18;3.20;;;;;;;;;;5013450;28;20033;-95
2023/08/11 10:03:00;;;;;;;7.22;3.30;;;;;;;;;;4995718;28;20141;-95
2023/08/11 10:05:35;;;;;;;5.97;3.03;;;;;;;;;;5006996;28;20072;-94
2023/08/11 10:08:10;;;;;;;5.10;2.95;;;;;;;;;;5020247;28;20021;-93
2023/08/11 10:10:37;;;;;;;4.10;2.97;;;;;;;;;;5021595;28;20034;-93
2023/08/11 10:13:12;;;;;;;8.25;2.95;;;;;;;;;;4998670;28;20034;-93
2023/08/11 10:15:45;;;;;;;7.80;3.30;;;;;;;;;;5010941;28;20042;-93
2023/08/11 10:18:14;;;;;;;6.68;2.92;;;;;;;;;;5012245;28;20051;-94
2023/08/11 10:20:43;;;;;;;7.50;3.08;;;;;;;;;;4997999;28;20053;-94
2023/08/11 10:23:13;;;;;;;6.00;2.95;;;;;;;;;;5000037;28;20529;-93
2023/08/11 10:25:45;;;;;;;5.65;3.15;;;;;;;;;;5022731;28;20045;-93
2023/08/11 10:28:12;;;;;;;3.67;3.00;;;;;;;;;;5029321;28;20010;-93
2023/08/11 10:30:40;;;;;;;5.72;3.03;;;;;;;;;;5012970;28;20042;-92
2023/08/11 10:33:08;;;;;;;5.78;3.25;;;;;;;;;;5026792;28;20030;-92
2023/08/11 10:35:57;;;;;;;7.95;3.50;;;;;;;;;;5046445;28;20030;-93
2023/08/11 10:38:33;;;;;;;3.40;2.47;;;;;;;;;;5051277;28;20090;-93
2023/08/11 10:41:08;;;;;;;5.13;3.03;;;;;;;;;;5031101;28;20037;-93
2023/08/11 10:43:37;;;;;;;8.73;2.73;;;;;;;;;;5037828;28;20534;-93
2023/08/11 10:46:24;;;;;;;7.93;2.75;;;;;;;;;;5004270;28;20288;-93
2023/08/11 10:48:51;;;;;;;7.18;2.92;;;;;;;;;;5023753;28;20025;-94
2023/08/11 10:51:37;;;;;;;5.95;2.85;;;;;;;;;;5046878;28;20010;-94
2023/08/11 10:54:09;;;;;;;9.63;2.92;;;;;;;;;;5028398;28;20029;-94
2023/08/11 10:56:38;;;;;;;4.38;2.67;;;;;;;;;;5023432;28;20025;-94
2023/08/11 10:59:23;;;;;;;6.05;2.85;;;;;;;;;;5020077;28;20031;-93
2023/08/11 11:01:50;;;;;;;5.40;3.30;;;;;;;;;;5021604;28;20125;-93
2023/08/11 11:04:17;;;;;;;7.90;2.80;;;;;;;;;;5018641;28;20029;-94
2023/08/11 11:06:47;;;;;;;3.45;2.55;;;;;;;;;;5030863;28;20060;-94
2023/08/11 11:09:16;;;;;;;5.03;2.65;;;;;;;;;;5015115;28;20037;-95
2023/08/11 11:11:44;;;;;;;3.17;2.53;;;;;;;;;;5030660;28;20032;-94
2023/08/11 11:14:11;;;;;;;7.38;3.15;;;;;;;;;;5021554;28;20450;-92
2023/08/11 11:16:42;;;;;;;4.28;2.75;;;;;;;;;;4991189;28;20131;-95
2023/08/11 11:19:10;;;;;;;4.18;2.63;;;;;;;;;;5032823;28;20032;-95
2023/08/11 11:21:40;;;;;;;3.58;2.78;;;;;;;;;;5006444;28;20037;-94
2023/08/11 11:24:06;;;;;;;5.35;3.13;;;;;;;;;;5011089;28;20393;-94
2023/08/11 11:26:51;;;;;;;3.70;2.35;;;;;;;;;;5008543;28;20034;-94
2023/08/11 11:29:23;;;;;;;2.72;2.25;;;;;;;;;;5007413;28;20392;-95
2023/08/11 11:31:53;;;;;;;5.10;2.47;;;;;;;;;;5007515;28;20021;-94
2023/08/11 11:34:39;;;;;;;3.47;1.88;;;;;;;;;;4990419;28;20544;-93
2023/08/11 11:37:08;;;;;;;6.35;2.70;;;;;;;;;;4990353;28;20136;-93
2023/08/11 11:39:34;;;;;;;4.38;3.13;;;;;;;;;;4987535;28;20053;-91
2023/08/11 11:42:06;;;;;;;6.60;2.78;;;;;;;;;;4987271;28;20069;-92
2023/08/11 11:44:42;;;;;;;3.53;2.60;;;;;;;;;;5003524;28;20146;-92
2023/08/11 11:47:29;;;;;;;5.60;2.92;;;;;;;;;;4989477;28;20104;-92
2023/08/11 11:49:59;;;;;;;5.03;2.78;;;;;;;;;;5001373;28;20034;-92
2023/08/11 11:52:26;;;;;;;3.90;2.50;;;;;;;;;;5000203;28;20044;-92
2023/08/11 11:54:53;;;;;;;4.97;2.75;;;;;;;;;;4995774;28;20096;-91
2023/08/11 11:57:28;;;;;;;4.95;2.67;;;;;;;;;;4987373;28;20037;-92
2023/08/11 11:59:54;;;;;;;8.35;2.88;;;;;;;;;;4990199;28;20592;-91
2023/08/11 12:02:23;;;;;;;9.55;2.78;;;;;;;;;;4990605;28;20522;-92
2023/08/11 12:04:49;;;;;;;6.40;2.92;;;;;;;;;;4991318;28;20034;-93
2023/08/11 12:07:29;;;;;;;5.43;2.70;;;;;;;;;;5004226;28;20027;-93
2023/08/11 12:10:02;;;;;;;7.28;2.45;;;;;;;;;;5005961;28;20026;-94
2023/08/11 12:12:29;;;;;;;5.53;2.53;;;;;;;;;;5006362;28;20066;-93
2023/08/11 12:15:18;;;;;;;4.85;3.10;;;;;;;;;;5014157;28;20029;-93
2023/08/11 12:17:49;;;;;;;6.97;2.60;;;;;;;;;;5011714;28;20061;-94
2023/08/11 12:20:18;;;;;;;4.10;2.97;;;;;;;;;;5005248;28;20030;-92
2023/08/11 12:22:44;;;;;;;10.80;3.03;;;;;;;;;;5009835;28;20457;-92
2023/08/11 12:25:11;;;;;;;3.38;2.50;;;;;;;;;;4991377;28;20033;-93
2023/08/11 12:28:01;;;;;;;9.15;3.03;;;;;;;;;;5010026;28;20034;-93
2023/08/11 12:30:39;;;;;;;9.50;3.63;;;;;;;;;;5006265;28;20442;-93
2023/08/11 12:33:06;;;;;;;8.70;2.90;;;;;;;;;;5008458;28;20076;-92
2023/08/11 12:35:35;;;;;;;3.88;2.67;;;;;;;;;;5000836;28;21034;-94
2023/08/11 12:38:12;;;;;;;12.95;3.70;;;;;;;;;;5036155;28;20053;-92
2023/08/11 12:40:51;;;;;;;3.70;2.53;;;;;;;;;;5021569;28;20037;-94
2023/08/11 12:43:18;;;;;;;4.22;2.85;;;;;;;;;;5033627;28;20030;-93
2023/08/11 12:45:44;;;;;;;3.95;3.08;;;;;;;;;;5004664;28;20136;-94
2023/08/11 12:48:11;;;;;;;4.45;2.83;;;;;;;;;;5015668;28;20658;-94
2023/08/11 12:50:40;;;;;;;4.90;2.83;;;;;;;;;;5017506;28;20102;-95
2023/08/11 12:53:07;;;;;;;6.25;2.60;;;;;;;;;;5005559;28;20131;-96
2023/08/11 12:55:50;;;;;;;14.60;3.17;;;;;;;;;;5003155;28;20056;-96
2023/08/11 12:58:16;;;;;;;5.47;2.72;;;;;;;;;;5013287;28;20103;-96
2023/08/11 13:00:42;;;;;;;3.25;2.53;;;;;;;;;;5002962;28;20077;-96
2023/08/11 13:03:45;;;;;;;5.28;2.53;;;;;;;;;;5013831;28;20048;-96
2023/08/11 13:06:11;;;;;;;4.63;2.83;;;;;;;;;;4935040;29;20016;-95
2023/08/11 13:08:38;;;;;;;3.25;2.33;;;;;;;;;;4997693;28;20383;-96
2023/08/11 13:11:13;;;;;;;5.88;2.65;;;;;;;;;;4998487;28;20028;-96
2023/08/11 13:13:39;;;;;;;7.28;2.45;;;;;;;;;;4992996;28;20037;-96
2023/08/11 13:16:07;;;;;;;4.82;2.92;;;;;;;;;;4997852;28;20030;-96
2023/08/11 13:18:47;;;;;;;4.97;2.45;;;;;;;;;;4991232;28;20045;-95
2023/08/11 13:21:13;;;;;;;4.57;2.50;;;;;;;;;;5019269;28;20112;-96
2023/08/11 13:23:39;;;;;;;3.90;2.65;;;;;;;;;;5015849;28;20381;-96
2023/08/11 13:26:05;;;;;;;3.78;2.40;;;;;;;;;;4994257;28;20035;-95
2023/08/11 13:28:35;;;;;;;6.15;2.63;;;;;;;;;;4991460;28;20041;-96
2023/08/11 13:31:01;;;;;;;7.05;2.47;;;;;;;;;;4999202;28;20037;-95
2023/08/11 13:33:27;;;;;;;6.07;2.83;;;;;;;;;;4993165;28;20060;-96
2023/08/11 13:35:54;;;;;;;5.43;2.70;;;;;;;;;;5020679;28;20544;-93
2023/08/11 13:38:22;;;;;;;5.20;2.60;;;;;;;;;;5018704;28;20562;-93
2023/08/11 13:40:58;;;;;;;;;;;;;;;;;;;;;
2023/08/11 13:43:25;;;;;;;4.13;2.38;;;;;;;;;;5019548;28;20044;-92
2023/08/11 13:45:53;;;;;;;5.20;2.90;;;;;;;;;;5016264;28;20030;-93
2023/08/11 13:48:21;;;;;;;6.70;2.92;;;;;;;;;;5013396;28;20496;-92
2023/08/11 13:50:48;;;;;;;4.43;2.60;;;;;;;;;;5014987;28;20037;-92
2023/08/11 13:53:26;;;;;;;10.43;2.92;;;;;;;;;;5016562;28;20037;-93
2023/08/11 13:55:55;;;;;;;7.72;2.47;;;;;;;;;;4995508;28;20493;-93
2023/08/11 13:58:21;;;;;;;4.60;2.40;;;;;;;;;;5027238;28;20083;-92
2023/08/11 14:01:03;;;;;;;5.15;2.63;;;;;;;;;;5012255;28;20034;-94
2023/08/11 14:06:19;;;;;;;5.68;2.65;;;;;;;;;;5034803;28;20041;-93
2023/08/11 14:08:45;;;;;;;2.67;2.45;;;;;;;;;;5004213;28;20038;-91
2023/08/11 14:11:13;;;;;;;8.02;3.22;;;;;;;;;;5017343;28;20017;-94
2023/08/11 14:13:42;;;;;;;3.80;2.95;;;;;;;;;;5014263;28;20041;-93
2023/08/11 14:16:08;;;;;;;4.50;2.75;;;;;;;;;;5021986;28;20358;-93
2023/08/11 14:18:39;;;;;;;5.90;2.78;;;;;;;;;;5018472;28;20052;-93
2023/08/11 14:21:05;;;;;;;6.18;2.42;;;;;;;;;;5014402;28;20116;-92
2023/08/11 14:23:46;;;;;;;5.50;2.85;;;;;;;;;;5015422;28;20038;-93
2023/08/11 14:29:01;;;;;;;4.10;3.15;;;;;;;;;;5000879;28;20033;-94
2023/08/11 14:31:28;;;;;;;7.32;2.80;;;;;;;;;;5010911;28;20025;-93
2023/08/11 14:33:55;;;;;;;4.85;2.85;;;;;;;;;;4996761;28;20100;-92
2023/08/11 14:36:24;;;;;;;5.82;2.67;;;;;;;;;;5024582;28;20046;-93
2023/08/11 14:38:52;;;;;;;9.43;2.90;;;;;;;;;;5020905;28;20084;-94
2023/08/11 14:41:18;;;;;;;7.40;2.90;;;;;;;;;;5035041;28;20026;-93
2023/08/11 14:43:47;;;;;;;9.70;3.10;;;;;;;;;;5001143;28;20037;-93
2023/08/11 14:46:37;;;;;;;4.57;2.75;;;;;;;;;;5009532;28;20026;-95
2023/08/11 14:49:11;;;;;;;5.82;2.50;;;;;;;;;;5005756;28;20041;-95
2023/08/11 14:57:34;;;;;;;3.33;2.50;;;;;;;;;;4975801;28;20051;-96
2023/08/11 15:00:00;;;;;;;3.55;2.70;;;;;;;;;;4975869;28;20038;-91
2023/08/11 15:05:16;;;;;;;6.82;2.40;;;;;;;;;;4915919;29;20433;-89
2023/08/11 15:07:43;;;;;;;5.38;2.53;;;;;;;;;;4951466;28;20034;-93